Time;durP1;ratioP1;P1;durP2;ratioP2;P2;SDS_P1;SDS_P2;PMS_P1;PMS_P2;Temp;Humidity;BMP_temperature;BMP_pressure;BME280_temperature;BME280_humidity;BME280_pressure;Samples;Min_cycle;Max_cycle;Signal;HPM_P1;HPM_P2
2023/06/17 00:01:52;;;;;;;;;;;;;;;30.42;28.07;94248.78;5015778;28;7209;-61
2023/06/17 00:04:30;;;;;;;;;;;;;;;30.37;28.74;94244.88;5010035;28;7062;-61
2023/06/17 00:07:02;;;;;;;;;;;;;;;30.41;28.42;94255.59;5035337;28;8943;-60
2023/06/17 00:09:31;;;;;;;;;;;;;;;30.39;27.56;94256.16;5021127;28;9422;-61
2023/06/17 00:12:36;;;;;;;;;;;;;;;30.34;28.07;94251.50;5024783;28;8532;-60
2023/06/17 00:15:07;;;;;;;;;;;;;;;30.30;28.41;94250.34;5029080;28;7267;-61
2023/06/17 00:18:05;;;;;;;;;;;;;;;30.27;28.94;94243.88;5035710;28;7784;-60
2023/06/17 00:20:52;;;;;;;;;;;;;;;30.24;28.28;94242.16;5030158;28;7245;-60
2023/06/17 00:23:37;;;;;;;;;;;;;;;30.23;28.07;94242.72;5015733;28;7172;-61
2023/06/17 00:26:06;;;;;;;;;;;;;;;30.22;27.69;94236.44;5013067;28;9036;-60
2023/06/17 00:28:33;;;;;;;;;;;;;;;30.18;28.79;94238.81;5026895;28;9096;-61
2023/06/17 00:31:01;;;;;;;;;;;;;;;30.18;28.73;94241.59;5010996;28;7111;-61
2023/06/17 00:33:52;;;;;;;;;;;;;;;30.17;28.41;94231.75;5030235;28;7343;-61
2023/06/17 00:36:20;;;;;;;;;;;;;;;30.15;27.68;94226.03;5051729;28;7152;-60
2023/06/17 00:38:48;;;;;;;;;;;;;;;30.15;28.10;94230.81;5036359;28;8857;-60
2023/06/17 00:41:18;;;;;;;;;;;;;;;30.12;28.75;94229.91;5017769;28;9037;-60
2023/06/17 00:44:01;;;;;;;;;;;;;;;30.11;28.64;94235.97;5029173;28;7145;-60
2023/06/17 00:47:02;;;;;;;;;;;;;;;30.09;28.66;94235.78;5009340;28;9572;-61
2023/06/17 00:49:40;;;;;;;;;;;;;;;30.06;28.46;94229.28;5012137;28;9398;-61
2023/06/17 00:52:20;;;;;;;;;;;;;;;30.01;28.54;94221.88;5016791;28;9152;-61
2023/06/17 00:54:53;;;;;;;;;;;;;;;30.03;27.66;94227.63;5036481;28;7334;-61
2023/06/17 00:57:33;;;;;;;;;;;;;;;29.98;27.90;94222.19;5009803;28;9087;-61
2023/06/17 01:00:27;;;;;;;;;;;;;;;30.00;27.65;94228.69;5002017;28;7553;-61
2023/06/17 01:02:56;;;;;;;;;;;;;;;29.99;27.74;94226.47;5025917;28;9232;-61
2023/06/17 01:05:22;;;;;;;;;;;;;;;29.98;27.45;94222.94;5012694;28;7091;-61
2023/06/17 01:08:44;;;;;;;;;;;;;;;29.97;28.16;94221.44;5013035;28;9382;-61
2023/06/17 01:11:24;;;;;;;;;;;;;;;29.95;27.84;94220.53;4997173;28;7020;-61
2023/06/17 01:13:55;;;;;;;;;;;;;;;29.99;28.23;94220.91;4979382;28;7052;-61
2023/06/17 01:16:32;;;;;;;;;;;;;;;29.99;27.97;94227.22;4967153;28;7286;-61
2023/06/17 01:19:02;;;;;;;;;;;;;;;29.97;27.95;94218.66;4982890;28;9530;-61
2023/06/17 01:21:37;;;;;;;;;;;;;;;29.95;27.88;94224.03;4983099;28;8747;-61
2023/06/17 01:24:05;;;;;;;;;;;;;;;29.97;28.15;94224.22;4963234;28;9279;-61
2023/06/17 01:26:44;;;;;;;;;;;;;;;29.94;27.79;94217.00;4980425;28;7127;-61
2023/06/17 01:29:22;;;;;;;;;;;;;;;29.94;27.54;94207.94;4968440;28;8981;-61
2023/06/17 01:32:02;;;;;;;;;;;;;;;29.94;28.33;94219.03;4969467;28;8863;-61
2023/06/17 01:35:15;;;;;;;;;;;;;;;29.96;28.03;94222.75;4984553;28;8797;-61
2023/06/17 01:37:50;;;;;;;;;;;;;;;29.93;28.00;94218.28;5000918;28;7047;-61
2023/06/17 01:40:24;;;;;;;;;;;;;;;29.93;27.98;94215.50;4966807;28;7513;-61
2023/06/17 01:43:08;;;;;;;;;;;;;;;29.92;27.17;94225.13;4999293;28;9171;-61
2023/06/17 01:45:45;;;;;;;;;;;;;;;29.92;28.28;94225.13;4982392;28;7282;-60
2023/06/17 01:48:22;;;;;;;;;;;;;;;29.93;27.85;94228.66;5024122;28;9326;-61
2023/06/17 01:50:54;;;;;;;;;;;;;;;29.91;27.68;94222.88;5021570;28;7036;-61
2023/06/17 01:53:35;;;;;;;;;;;;;;;29.90;27.85;94230.47;5017021;28;7042;-61
2023/06/17 01:56:11;;;;;;;;;;;;;;;29.88;27.89;94223.97;5024148;28;7259;-60
2023/06/17 01:58:39;;;;;;;;;;;;;;;29.88;27.83;94221.97;5021547;28;7029;-61
2023/06/17 02:01:24;;;;;;;;;;;;;;;29.89;27.89;94223.44;5030184;28;7323;-61
2023/06/17 02:03:54;;;;;;;;;;;;;;;29.88;27.75;94219.19;5024816;28;9271;-60
2023/06/17 02:06:31;;;;;;;;;;;;;;;29.86;27.16;94219.00;5035957;28;7239;-61
2023/06/17 02:08:57;;;;;;;;;;;;;;;29.86;27.86;94224.53;5015336;28;7375;-61
2023/06/17 02:11:49;;;;;;;;;;;;;;;29.89;27.29;94226.19;5027785;28;7374;-61
2023/06/17 02:14:24;;;;;;;;;;;;;;;29.93;27.36;94217.56;5015410;28;9363;-61
2023/06/17 02:16:52;;;;;;;;;;;;;;;29.92;27.66;94218.84;5015484;28;7331;-61
2023/06/17 02:19:23;;;;;;;;;;;;;;;29.93;27.76;94215.50;5050970;28;8911;-60
2023/06/17 02:21:54;;;;;;;;;;;;;;;29.92;27.19;94214.03;5051536;28;7257;-61
2023/06/17 02:24:37;;;;;;;;;;;;;;;29.95;27.31;94220.53;5012727;28;7514;-61
2023/06/17 02:27:06;;;;;;;;;;;;;;;29.95;27.57;94226.06;5035596;28;8337;-61
2023/06/17 02:29:50;;;;;;;;;;;;;;;29.93;27.69;94223.09;5019936;28;7755;-61
2023/06/17 02:32:27;;;;;;;;;;;;;;;29.94;27.21;94219.78;5011789;28;7472;-61
2023/06/17 02:34:57;;;;;;;;;;;;;;;29.94;27.68;94219.03;5051650;28;9101;-61
2023/06/17 02:37:36;;;;;;;;;;;;;;;29.93;27.16;94225.88;5050338;28;9089;-61
2023/06/17 02:40:08;;;;;;;;;;;;;;;29.93;27.80;94220.34;5026977;28;7408;-61
2023/06/17 02:42:51;;;;;;;;;;;;;;;29.90;27.49;94224.94;5008845;28;9072;-60
2023/06/17 02:45:17;;;;;;;;;;;;;;;29.94;27.46;94219.03;5018429;28;9053;-61
2023/06/17 02:47:57;;;;;;;;;;;;;;;29.89;27.75;94217.88;5011987;28;7132;-61
2023/06/17 02:50:36;;;;;;;;;;;;;;;29.90;27.88;94218.63;5035421;28;9725;-61
2023/06/17 02:53:07;;;;;;;;;;;;;;;29.88;28.13;94210.88;5029807;28;7071;-61
2023/06/17 02:55:35;;;;;;;;;;;;;;;29.90;26.95;94213.84;5014996;28;7507;-61
2023/06/17 02:58:03;;;;;;;;;;;;;;;29.90;27.74;94213.09;5025910;28;7101;-61
2023/06/17 03:00:46;;;;;;;;;;;;;;;29.89;27.61;94211.59;5035696;28;7246;-61
2023/06/17 03:03:43;;;;;;;;;;;;;;;29.89;28.34;94209.56;5010654;28;9272;-60
2023/06/17 03:06:15;;;;;;;;;;;;;;;29.88;27.48;94210.13;5017947;28;9425;-61
2023/06/17 03:08:42;;;;;;;;;;;;;;;29.85;27.48;94211.94;5010420;28;8906;-61
2023/06/17 03:11:21;;;;;;;;;;;;;;;29.86;27.87;94212.69;5034597;28;7099;-61
2023/06/17 03:14:03;;;;;;;;;;;;;;;29.86;26.94;94210.66;5020145;28;8596;-61
2023/06/17 03:16:36;;;;;;;;;;;;;;;29.85;26.92;94214.72;5030131;28;7142;-61
2023/06/17 03:19:05;;;;;;;;;;;;;;;29.83;28.11;94213.78;5031543;28;7302;-60
2023/06/17 03:21:40;;;;;;;;;;;;;;;29.83;27.11;94208.97;5034938;28;8892;-61
2023/06/17 03:24:09;;;;;;;;;;;;;;;29.83;27.83;94211.75;5007275;28;9182;-61
2023/06/17 03:26:37;;;;;;;;;;;;;;;29.85;27.14;94213.97;5028887;28;9385;-60
2023/06/17 03:29:04;;;;;;;;;;;;;;;29.84;27.30;94215.28;5005572;28;7236;-61
2023/06/17 03:31:30;;;;;;;;;;;;;;;29.84;27.27;94210.44;5029184;28;7036;-61
2023/06/17 03:34:00;;;;;;;;;;;;;;;29.79;26.95;94205.81;5007037;28;7163;-61
2023/06/17 03:36:30;;;;;;;;;;;;;;;29.80;27.86;94210.03;5031335;28;9493;-60
2023/06/17 03:39:26;;;;;;;;;;;;;;;29.83;27.50;94211.00;5016146;28;7194;-61
2023/06/17 03:42:06;;;;;;;;;;;;;;;29.82;27.50;94212.28;4957577;28;9726;-61
2023/06/17 03:44:35;;;;;;;;;;;;;;;29.81;27.86;94211.53;4972849;28;8009;-61
2023/06/17 03:47:29;;;;;;;;;;;;;;;29.81;27.46;94211.53;4974564;28;7145;-61
2023/06/17 03:49:56;;;;;;;;;;;;;;;29.77;28.20;94206.34;4976896;28;7574;-60
2023/06/17 03:52:32;;;;;;;;;;;;;;;29.78;27.09;94207.06;4993824;28;9108;-61
2023/06/17 03:54:59;;;;;;;;;;;;;;;29.79;27.85;94214.13;4967642;28;7005;-61
2023/06/17 03:57:27;;;;;;;;;;;;;;;29.77;27.81;94211.91;4957076;28;9515;-61
2023/06/17 03:59:54;;;;;;;;;;;;;;;29.74;28.02;94206.69;4956257;28;8625;-61
2023/06/17 04:02:22;;;;;;;;;;;;;;;29.75;27.14;94211.69;4989746;28;7243;-61
2023/06/17 04:04:52;;;;;;;;;;;;;;;29.76;27.16;94217.97;4947685;28;7044;-61
2023/06/17 04:07:21;;;;;;;;;;;;;;;29.76;27.38;94215.94;4956346;28;8740;-61
2023/06/17 04:09:47;;;;;;;;;;;;;;;29.73;27.18;94214.22;4956695;28;7023;-61
2023/06/17 04:12:31;;;;;;;;;;;;;;;29.72;27.52;94214.78;4990843;28;7262;-61
2023/06/17 04:15:28;;;;;;;;;;;;;;;29.73;27.51;94222.53;4973003;28;8783;-61
2023/06/17 04:18:04;;;;;;;;;;;;;;;29.69;27.98;94213.81;4961813;28;7117;-61
2023/06/17 04:20:34;;;;;;;;;;;;;;;29.70;27.69;94223.63;4985247;28;9120;-60
2023/06/17 04:23:05;;;;;;;;;;;;;;;29.69;27.62;94218.63;4976069;28;7102;-61
2023/06/17 04:25:32;;;;;;;;;;;;;;;29.69;28.34;94216.59;4990318;28;7272;-60
2023/06/17 04:28:02;;;;;;;;;;;;;;;29.68;27.55;94217.16;4974596;28;7149;-61
2023/06/17 04:30:39;;;;;;;;;;;;;;;29.70;27.72;94222.88;4972054;28;7187;-61
2023/06/17 04:33:32;;;;;;;;;;;;;;;29.69;27.19;94221.38;4972815;28;9363;-61
2023/06/17 04:35:59;;;;;;;;;;;;;;;29.66;27.92;94223.25;4970654;28;10224;-61
2023/06/17 04:38:53;;;;;;;;;;;;;;;29.69;27.96;94226.94;4992515;28;7246;-61
2023/06/17 04:41:20;;;;;;;;;;;;;;;29.69;27.54;94222.13;4990352;28;8724;-61
2023/06/17 04:43:55;;;;;;;;;;;;;;;29.67;28.01;94219.16;4978242;28;7014;-61
2023/06/17 04:46:23;;;;;;;;;;;;;;;29.66;27.65;94223.25;4981106;28;7037;-60
2023/06/17 04:48:52;;;;;;;;;;;;;;;29.66;27.70;94223.25;4975967;28;8623;-61
2023/06/17 04:51:38;;;;;;;;;;;;;;;29.67;28.17;94218.41;4990645;28;7402;-61
2023/06/17 04:54:12;;;;;;;;;;;;;;;29.67;28.19;94218.41;5006461;28;7318;-60
2023/06/17 04:56:38;;;;;;;;;;;;;;;29.65;27.95;94218.97;5032104;28;9040;-60
2023/06/17 04:59:06;;;;;;;;;;;;;;;29.61;27.65;94210.25;5017863;28;7102;-60
2023/06/17 05:01:39;;;;;;;;;;;;;;;29.63;28.68;94212.47;5027342;28;7247;-60
2023/06/17 05:04:13;;;;;;;;;;;;;;;29.59;28.10;94212.06;5010943;28;9086;-60
2023/06/17 05:06:44;;;;;;;;;;;;;;;29.60;28.11;94219.13;5030928;28;7352;-60
2023/06/17 05:09:10;;;;;;;;;;;;;;;29.59;28.30;94217.63;5008891;28;7327;-61
2023/06/17 05:11:40;;;;;;;;;;;;;;;29.55;27.90;94208.91;5016318;28;7323;-61
2023/06/17 05:14:44;;;;;;;;;;;;;;;29.61;27.78;94217.81;5027627;28;8751;-60
2023/06/17 05:17:13;;;;;;;;;;;;;;;29.63;28.55;94220.78;4968133;28;7244;-60
2023/06/17 05:20:26;;;;;;;;;;;;;;;29.60;28.17;94222.63;4973386;28;7056;-61
2023/06/17 05:22:56;;;;;;;;;;;;;;;29.60;28.36;94219.84;4943998;28;7140;-61
2023/06/17 05:29:00;;;;;;;;;;;;;;;29.58;28.66;94224.47;4936251;28;7304;-61
2023/06/17 05:31:29;;;;;;;;;;;;;;;29.59;28.24;94223.91;4942865;28;7187;-61
2023/06/17 05:34:07;;;;;;;;;;;;;;;29.58;28.35;94213.38;4922630;28;7278;-61
2023/06/17 05:36:43;;;;;;;;;;;;;;;29.58;28.92;94216.16;4919158;28;8745;-61
2023/06/17 05:39:33;;;;;;;;;;;;;;;29.58;28.76;94227.22;4925213;28;9077;-61
2023/06/17 05:42:01;;;;;;;;;;;;;;;29.56;29.10;94224.22;4941548;28;7149;-61
2023/06/17 05:44:28;;;;;;;;;;;;;;;29.58;29.05;94230.00;4932698;28;7721;-61
2023/06/17 05:47:03;;;;;;;;;;;;;;;29.55;29.59;94226.28;4946640;28;7951;-61
2023/06/17 05:49:46;;;;;;;;;;;;;;;29.58;29.35;94230.72;4929131;28;8756;-61
2023/06/17 05:52:21;;;;;;;;;;;;;;;29.56;29.02;94235.31;4948107;28;7185;-61
2023/06/17 05:55:10;;;;;;;;;;;;;;;29.56;29.02;94236.06;4962292;28;7436;-61
2023/06/17 05:57:37;;;;;;;;;;;;;;;29.57;29.87;94236.81;4942043;28;7317;-61
2023/06/17 06:00:29;;;;;;;;;;;;;;;29.58;29.90;94232.78;5004908;28;7052;-62
2023/06/17 06:03:07;;;;;;;;;;;;;;;29.59;29.28;94232.22;5006549;28;7355;-62
2023/06/17 06:05:41;;;;;;;;;;;;;;;29.61;30.04;94228.91;5021373;28;9110;-62
2023/06/17 06:08:17;;;;;;;;;;;;;;;29.61;29.76;94237.97;5010090;28;7037;-61
2023/06/17 06:10:55;;;;;;;;;;;;;;;29.60;29.80;94239.25;5013068;28;9329;-61
2023/06/17 06:13:51;;;;;;;;;;;;;;;29.61;30.64;94237.97;5031830;28;7242;-62
2023/06/17 06:16:27;;;;;;;;;;;;;;;29.63;30.21;94238.19;4985462;28;7024;-61
2023/06/17 06:18:53;;;;;;;;;;;;;;;29.60;29.87;94241.28;4968755;28;7229;-62
2023/06/17 06:21:20;;;;;;;;;;;;;;;29.65;30.48;94243.91;4963860;28;7154;-63
2023/06/17 06:23:46;;;;;;;;;;;;;;;29.66;30.08;94245.41;4973386;28;7289;-61
2023/06/17 06:26:22;;;;;;;;;;;;;;;29.60;29.85;94241.28;4972266;28;7214;-62
2023/06/17 06:28:59;;;;;;;;;;;;;;;29.61;30.10;94242.75;4987417;28;9310;-62
2023/06/17 06:31:55;;;;;;;;;;;;;;;29.66;31.08;94255.75;4970601;28;8944;-61
2023/06/17 06:34:45;;;;;;;;;;;;;;;29.66;30.04;94252.97;4986321;28;9043;-62
2023/06/17 06:37:41;;;;;;;;;;;;;;;29.69;30.93;94257.44;4987663;28;8011;-61
2023/06/17 06:40:22;;;;;;;;;;;;;;;29.69;31.21;94262.97;4962553;28;7232;-61
2023/06/17 06:43:23;;;;;;;;;;;;;;;29.69;30.53;94263.72;4986670;28;8255;-61
2023/06/17 06:45:53;;;;;;;;;;;;;;;29.69;30.07;94262.97;4974313;28;7358;-62
2023/06/17 06:48:38;;;;;;;;;;;;;;;29.70;30.31;94268.00;4966990;28;7968;-62
2023/06/17 06:51:04;;;;;;;;;;;;;;;29.66;30.07;94264.06;4986093;28;7197;-61
2023/06/17 06:53:39;;;;;;;;;;;;;;;29.61;29.95;94268.47;5006798;28;6905;-62
2023/06/17 06:56:07;;;;;;;;;;;;;;;29.61;30.57;94264.94;5008072;28;7320;-62
2023/06/17 06:58:42;;;;;;;;;;;;;;;29.65;30.44;94273.66;5029595;28;7456;-61
2023/06/17 07:01:20;;;;;;;;;;;;;;;29.63;30.31;94279.00;5023928;28;8768;-61
2023/06/17 07:03:56;;;;;;;;;;;;;;;29.67;30.71;94276.63;5002795;28;7404;-61
2023/06/17 07:06:33;;;;;;;;;;;;;;;29.69;30.07;94282.38;5019711;28;9422;-61
2023/06/17 07:08:59;;;;;;;;;;;;;;;29.69;29.92;94271.28;5024658;28;7099;-61
2023/06/17 07:11:27;;;;;;;;;;;;;;;29.69;29.73;94280.34;5029462;28;7515;-61
2023/06/17 07:13:57;;;;;;;;;;;;;;;29.69;29.96;94279.59;5026058;28;9613;-61
2023/06/17 07:16:33;;;;;;;;;;;;;;;29.69;30.33;94274.06;5015334;28;7297;-61
2023/06/17 07:19:11;;;;;;;;;;;;;;;29.70;29.90;94278.34;5018512;28;9072;-61
2023/06/17 07:21:56;;;;;;;;;;;;;;;29.70;29.74;94278.34;5014710;28;9094;-61
2023/06/17 07:24:22;;;;;;;;;;;;;;;29.72;30.41;94273.00;5014846;28;7238;-61
2023/06/17 07:26:51;;;;;;;;;;;;;;;29.72;29.44;94273.00;5023872;28;7429;-62
2023/06/17 07:29:30;;;;;;;;;;;;;;;29.70;30.22;94278.34;5015827;28;8489;-61
2023/06/17 07:32:00;;;;;;;;;;;;;;;29.72;29.42;94284.06;5031719;28;9336;-61
2023/06/17 07:34:37;;;;;;;;;;;;;;;29.72;30.49;94278.53;5043784;28;8768;-61
2023/06/17 07:37:04;;;;;;;;;;;;;;;29.74;29.87;94281.53;5021543;28;7068;-61
2023/06/17 07:39:31;;;;;;;;;;;;;;;29.74;29.34;94273.22;5024056;28;7258;-61
2023/06/17 07:42:06;;;;;;;;;;;;;;;29.73;30.69;94277.25;5014242;28;9051;-61
2023/06/17 07:45:08;;;;;;;;;;;;;;;29.73;29.80;94277.25;5008777;28;7227;-61
2023/06/17 07:47:45;;;;;;;;;;;;;;;29.73;30.04;94271.72;4967859;28;8481;-61
2023/06/17 07:50:12;;;;;;;;;;;;;;;29.73;29.83;94277.25;4970873;28;8809;-61
2023/06/17 07:53:13;;;;;;;;;;;;;;;29.74;30.17;94284.31;4973107;28;7333;-61
2023/06/17 07:55:48;;;;;;;;;;;;;;;29.74;30.54;94273.22;4951191;28;7250;-61
2023/06/17 07:58:24;;;;;;;;;;;;;;;29.73;29.76;94271.72;4971781;28;9017;-61
2023/06/17 08:01:00;;;;;;;;;;;;;;;29.74;30.41;94281.53;4975761;28;7052;-62
2023/06/17 08:04:01;;;;;;;;;;;;;;;29.74;29.83;94273.97;4956787;28;7449;-62
2023/06/17 08:06:40;;;;;;;;;;;;;;;29.76;29.97;94276.19;4863114;29;7531;-62
2023/06/17 08:09:36;;;;;;;;;;;;;;;29.77;30.03;94272.91;4861313;29;7329;-62
2023/06/17 08:12:05;;;;;;;;;;;;;;;29.76;30.09;94270.66;4861787;29;9046;-62
2023/06/17 08:15:06;;;;;;;;;;;;;;;29.74;29.68;94265.66;4875722;29;8621;-62
2023/06/17 08:17:57;;;;;;;;;;;;;;;29.77;30.74;94261.06;4855125;29;7024;-62
2023/06/17 08:20:24;;;;;;;;;;;;;;;29.77;30.20;94264.59;4872958;29;9132;-62
2023/06/17 08:23:07;;;;;;;;;;;;;;;29.76;30.89;94254.00;4872938;29;7034;-62
2023/06/17 08:25:35;;;;;;;;;;;;;;;29.77;30.50;94258.28;4898517;29;7201;-62
2023/06/17 08:28:02;;;;;;;;;;;;;;;29.78;30.70;94259.75;4930439;28;8725;-63
2023/06/17 08:30:42;;;;;;;;;;;;;;;29.79;30.74;94250.16;4909029;29;7274;-62
2023/06/17 08:33:42;;;;;;;;;;;;;;;29.79;31.27;94244.63;4912450;29;8644;-62
2023/06/17 08:36:16;;;;;;;;;;;;;;;29.79;30.29;94244.63;4899221;29;9725;-62
2023/06/17 08:39:21;;;;;;;;;;;;;;;29.82;31.29;94248.34;4914998;29;7275;-62
2023/06/17 08:41:57;;;;;;;;;;;;;;;29.81;30.27;94244.81;5010996;28;9637;-62
2023/06/17 08:44:33;;;;;;;;;;;;;;;29.83;30.20;94236.69;5013320;28;9602;-62
2023/06/17 08:47:15;;;;;;;;;;;;;;;29.81;31.13;94236.50;5033652;28;8753;-62
2023/06/17 08:49:55;;;;;;;;;;;;;;;29.83;29.92;94239.47;5010547;28;7044;-62
2023/06/17 08:52:33;;;;;;;;;;;;;;;29.82;30.63;94240.75;5020402;28;9728;-62
2023/06/17 08:55:17;;;;;;;;;;;;;;;29.85;30.35;94244.47;5035342;28;7234;-62
2023/06/17 08:57:49;;;;;;;;;;;;;;;29.86;30.93;94237.66;5022003;28;9641;-62
2023/06/17 09:00:20;;;;;;;;;;;;;;;29.86;30.36;94240.41;5019044;28;7217;-62
2023/06/17 09:02:56;;;;;;;;;;;;;;;29.86;30.41;94238.41;5029810;28;7373;-62
2023/06/17 09:05:31;;;;;;;;;;;;;;;29.87;30.32;94236.34;5021826;28;9034;-62
2023/06/17 09:08:01;;;;;;;;;;;;;;;29.87;30.22;94239.13;5017733;28;7249;-62
2023/06/17 09:10:29;;;;;;;;;;;;;;;29.83;30.34;94231.16;5014323;28;6991;-62
2023/06/17 09:12:59;;;;;;;;;;;;;;;29.89;30.78;94240.06;5024882;28;8539;-62
2023/06/17 09:15:28;;;;;;;;;;;;;;;29.89;31.14;94239.31;5015769;28;9056;-62
2023/06/17 09:17:58;;;;;;;;;;;;;;;29.89;30.61;94234.53;5026856;28;8913;-62
2023/06/17 09:20:40;;;;;;;;;;;;;;;29.89;31.17;94240.06;5055016;28;7049;-62
2023/06/17 09:23:26;;;;;;;;;;;;;;;29.90;30.11;94241.56;5011574;28;8981;-62
2023/06/17 09:26:12;;;;;;;;;;;;;;;29.91;30.82;94243.03;5034290;28;7485;-62
2023/06/17 09:28:49;;;;;;;;;;;;;;;29.87;30.56;94237.09;5014865;28;7288;-62
2023/06/17 09:31:21;;;;;;;;;;;;;;;29.91;30.49;94233.97;5047107;28;9465;-62
2023/06/17 09:33:49;;;;;;;;;;;;;;;29.90;30.92;94243.59;5016135;28;9276;-62
2023/06/17 09:36:21;;;;;;;;;;;;;;;29.92;30.78;94232.69;5016275;28;9039;-63
2023/06/17 09:38:51;;;;;;;;;;;;;;;29.90;30.69;94230.47;5048951;28;7775;-62
2023/06/17 09:41:20;;;;;;;;;;;;;;;29.90;30.56;94238.78;5005724;28;7321;-62
2023/06/17 09:43:54;;;;;;;;;;;;;;;29.90;30.70;94229.72;5008142;28;7273;-62
2023/06/17 09:46:29;;;;;;;;;;;;;;;29.91;31.15;94226.41;5029297;28;7244;-62
2023/06/17 09:48:58;;;;;;;;;;;;;;;29.91;31.43;94228.44;5046744;28;8728;-63
2023/06/17 09:51:26;;;;;;;;;;;;;;;29.92;31.36;94230.69;5029221;28;7353;-62
2023/06/17 09:53:54;;;;;;;;;;;;;;;29.97;31.11;94229.78;5018380;28;7095;-61
2023/06/17 09:56:20;;;;;;;;;;;;;;;29.98;30.23;94222.94;5030613;28;8722;-62
2023/06/17 09:58:56;;;;;;;;;;;;;;;30.01;30.65;94232.22;5050230;28;9054;-61
2023/06/17 10:01:39;;;;;;;;;;;;;;;30.00;30.22;94222.41;5051683;28;9496;-61
2023/06/17 10:04:07;;;;;;;;;;;;;;;30.03;30.76;94219.28;5016349;28;7055;-62
2023/06/17 10:06:46;;;;;;;;;;;;;;;30.03;31.31;94227.63;5020946;28;7059;-62
2023/06/17 10:09:20;;;;;;;;;;;;;;;30.05;30.10;94218.75;5011516;28;7126;-62
2023/06/17 10:15:26;;;;;;;;;;;;;;;30.05;30.68;94204.88;5019601;28;7050;-62
2023/06/17 10:17:56;;;;;;;;;;;;;;;30.06;30.80;94203.59;5031567;28;9111;-61
2023/06/17 10:20:31;;;;;;;;;;;;;;;30.06;30.42;94193.22;5048877;28;6947;-62
2023/06/17 10:23:01;;;;;;;;;;;;;;;30.09;30.78;94214.34;5037327;28;7267;-61
2023/06/17 10:25:29;;;;;;;;;;;;;;;30.09;30.52;94197.69;5010195;28;7168;-61
2023/06/17 10:28:01;;;;;;;;;;;;;;;30.13;30.96;94189.00;5023253;28;9029;-61
2023/06/17 10:31:18;;;;;;;;;;;;;;;30.14;29.96;94194.03;5037492;28;8720;-61
2023/06/17 10:34:03;;;;;;;;;;;;;;;30.11;29.91;94189.56;5019243;28;9184;-61
2023/06/17 10:36:35;;;;;;;;;;;;;;;30.15;30.35;94195.50;5010883;28;7014;-61
2023/06/17 10:39:13;;;;;;;;;;;;;;;30.17;29.80;94187.38;5018116;28;7265;-62
2023/06/17 10:41:59;;;;;;;;;;;;;;;30.18;29.90;94185.34;5033705;28;7047;-61
2023/06/17 10:44:33;;;;;;;;;;;;;;;30.17;29.50;94190.16;5013886;28;8807;-62
2023/06/17 10:47:20;;;;;;;;;;;;;;;30.19;30.43;94187.56;5034577;28;7042;-61
2023/06/17 10:49:49;;;;;;;;;;;;;;;30.21;30.41;94187.03;5027789;28;8682;-61
2023/06/17 10:52:20;;;;;;;;;;;;;;;30.22;29.97;94180.94;5019854;28;7259;-61
2023/06/17 10:55:02;;;;;;;;;;;;;;;30.23;30.46;94179.63;5014124;28;7258;-61
2023/06/17 10:57:35;;;;;;;;;;;;;;;30.23;30.24;94173.38;5024304;28;7298;-61
2023/06/17 11:00:06;;;;;;;;;;;;;;;30.24;30.28;94172.81;5025027;28;9409;-61
2023/06/17 11:02:36;;;;;;;;;;;;;;;30.26;30.08;94177.81;5054316;28;9045;-61
2023/06/17 11:05:33;;;;;;;;;;;;;;;30.26;30.20;94178.56;5051283;28;9441;-61
2023/06/17 11:08:03;;;;;;;;;;;;;;;30.26;30.15;94173.00;5012598;28;7511;-62
2023/06/17 11:10:29;;;;;;;;;;;;;;;30.27;29.89;94174.50;5031071;28;9404;-59
2023/06/17 11:13:06;;;;;;;;;;;;;;;30.29;29.37;94173.94;5022939;28;8871;-59
2023/06/17 11:16:10;;;;;;;;;;;;;;;30.31;30.73;94174.91;5021360;28;7180;-60
2023/06/17 11:18:45;;;;;;;;;;;;;;;30.31;30.42;94166.59;4972857;28;7316;-60
2023/06/17 11:21:15;;;;;;;;;;;;;;;30.31;29.50;94174.91;4981348;28;8695;-59
2023/06/17 11:24:09;;;;;;;;;;;;;;;30.32;30.31;94167.34;4965870;28;9378;-61
2023/06/17 11:27:10;;;;;;;;;;;;;;;30.34;29.75;94168.25;4979908;28;7202;-61
2023/06/17 11:29:40;;;;;;;;;;;;;;;30.32;30.05;94153.47;4919501;29;7213;-61
2023/06/17 11:32:16;;;;;;;;;;;;;;;30.35;29.78;94160.69;4932942;29;8871;-61
2023/06/17 11:34:42;;;;;;;;;;;;;;;30.36;29.20;94164.94;4919172;29;9064;-61
2023/06/17 11:37:10;;;;;;;;;;;;;;;30.36;28.87;94162.91;4917451;29;7102;-61
2023/06/17 11:39:37;;;;;;;;;;;;;;;30.38;29.24;94154.03;4935229;29;7050;-61
2023/06/17 11:42:08;;;;;;;;;;;;;;;30.40;29.68;94154.97;4934194;28;9488;-61
2023/06/17 11:44:44;;;;;;;;;;;;;;;30.41;29.68;94158.47;4918548;29;7013;-62
2023/06/17 11:47:42;;;;;;;;;;;;;;;30.43;29.01;94156.63;4932574;29;9566;-61
2023/06/17 11:50:18;;;;;;;;;;;;;;;30.45;29.35;94156.09;4931140;29;9337;-62
2023/06/17 11:53:03;;;;;;;;;;;;;;;30.45;29.10;94151.28;4933850;29;7357;-61
2023/06/17 11:55:48;;;;;;;;;;;;;;;30.49;29.59;94150.94;4929984;29;7431;-61
2023/06/17 11:58:26;;;;;;;;;;;;;;;30.48;29.19;94152.97;4933327;28;7052;-61
2023/06/17 12:01:02;;;;;;;;;;;;;;;30.50;28.82;94157.97;4933142;29;7066;-61
2023/06/17 12:03:45;;;;;;;;;;;;;;;30.48;28.71;94152.97;4932269;29;7445;-61
2023/06/17 12:06:20;;;;;;;;;;;;;;;30.50;29.34;94155.94;4948460;28;7358;-61
2023/06/17 12:08:59;;;;;;;;;;;;;;;30.52;29.16;94156.13;4952852;28;9157;-61
2023/06/17 12:11:54;;;;;;;;;;;;;;;30.52;28.55;94153.34;4952096;28;7078;-61
2023/06/17 12:14:37;;;;;;;;;;;;;;;30.53;29.47;94154.84;4953661;28;8818;-61
2023/06/17 12:17:22;;;;;;;;;;;;;;;30.53;29.04;94152.06;4951923;28;7507;-61
2023/06/17 12:20:05;;;;;;;;;;;;;;;30.56;29.02;94147.44;4927307;28;7221;-61
2023/06/17 12:22:40;;;;;;;;;;;;;;;30.53;28.31;94152.06;4968083;28;7274;-61
2023/06/17 12:25:17;;;;;;;;;;;;;;;30.55;29.78;94151.50;4964975;28;7276;-61
2023/06/17 12:27:44;;;;;;;;;;;;;;;30.57;28.90;94145.41;5019108;28;9053;-61
2023/06/17 12:30:21;;;;;;;;;;;;;;;30.57;29.24;94145.41;5024449;28;7181;-60
2023/06/17 12:32:58;;;;;;;;;;;;;;;30.59;29.07;94154.66;5012951;28;9039;-61
2023/06/17 12:35:37;;;;;;;;;;;;;;;30.59;28.41;94140.78;5021090;28;7036;-61
2023/06/17 12:38:13;;;;;;;;;;;;;;;30.63;28.21;94145.97;5014146;28;9124;-61
2023/06/17 12:40:59;;;;;;;;;;;;;;;30.64;28.51;94150.25;5010659;28;7106;-60
2023/06/17 12:43:28;;;;;;;;;;;;;;;30.64;27.86;94145.44;5034836;28;9345;-61
2023/06/17 12:45:56;;;;;;;;;;;;;;;30.66;28.72;94139.34;5049168;28;7083;-60
2023/06/17 12:48:31;;;;;;;;;;;;;;;30.65;28.40;94140.63;5034658;28;7035;-61
2023/06/17 12:51:09;;;;;;;;;;;;;;;30.64;28.44;94147.47;5018133;28;9347;-61
2023/06/17 12:53:48;;;;;;;;;;;;;;;30.64;28.94;94128.03;5036229;28;9270;-61
2023/06/17 12:56:23;;;;;;;;;;;;;;;30.63;28.59;94129.31;5015769;28;7026;-61
2023/06/17 12:59:16;;;;;;;;;;;;;;;30.64;28.81;94128.03;5018968;28;7538;-61
2023/06/17 13:01:44;;;;;;;;;;;;;;;30.64;28.33;94128.03;4978470;28;8818;-60
2023/06/17 13:04:15;;;;;;;;;;;;;;;30.64;27.75;94128.03;4970192;28;7212;-61
2023/06/17 13:06:40;;;;;;;;;;;;;;;30.64;27.67;94133.59;4951655;28;8745;-61
2023/06/17 13:09:39;;;;;;;;;;;;;;;30.65;28.52;94137.84;4955109;28;9015;-61
2023/06/17 13:12:29;;;;;;;;;;;;;;;30.65;27.49;94127.47;4973503;28;8649;-61
2023/06/17 13:15:07;;;;;;;;;;;;;;;30.66;28.42;94128.22;4977921;28;9219;-61
2023/06/17 13:18:02;;;;;;;;;;;;;;;30.67;28.25;94115.84;4957428;28;9127;-61
2023/06/17 13:20:39;;;;;;;;;;;;;;;30.64;27.94;94114.16;4884418;29;9171;-61
2023/06/17 13:23:05;;;;;;;;;;;;;;;30.63;28.21;94109.88;4883800;29;9449;-61
2023/06/17 13:25:32;;;;;;;;;;;;;;;30.62;28.22;94109.16;4891563;29;8524;-61
2023/06/17 13:28:10;;;;;;;;;;;;;;;30.63;28.63;94113.41;4882298;29;9261;-61
2023/06/17 13:30:36;;;;;;;;;;;;;;;30.63;27.74;94105.09;4879145;29;7128;-61
2023/06/17 13:33:01;;;;;;;;;;;;;;;30.66;28.35;94095.66;4895000;29;7356;-61
2023/06/17 13:35:28;;;;;;;;;;;;;;;30.67;26.74;94099.19;4895438;29;7248;-61
2023/06/17 13:38:26;;;;;;;;;;;;;;;30.70;28.30;94103.63;4906469;28;8219;-61
2023/06/17 13:40:59;;;;;;;;;;;;;;;30.70;27.31;94101.59;4891133;29;7669;-61
2023/06/17 13:43:37;;;;;;;;;;;;;;;30.68;28.33;94098.63;4892078;29;8842;-61
2023/06/17 13:46:12;;;;;;;;;;;;;;;30.70;28.37;94098.06;4889181;29;7347;-61
2023/06/17 13:48:38;;;;;;;;;;;;;;;30.68;28.16;94097.88;4889626;29;7351;-61
2023/06/17 13:51:04;;;;;;;;;;;;;;;30.71;27.75;94094.00;4870279;29;9093;-61
2023/06/17 13:53:33;;;;;;;;;;;;;;;30.74;27.64;94090.84;4888871;29;7137;-61
2023/06/17 13:56:00;;;;;;;;;;;;;;;30.74;27.32;94090.09;4882084;28;8781;-61